sensor_id;sensor_type;location;lat;lon;timestamp;P1;durP1;ratioP1;P2;durP2;ratioP2
26756;SDS011;23848;49.798;10.228;2023-01-15T00:02:22;0.90;;;0.60;;
26756;SDS011;23848;49.798;10.228;2023-01-15T00:04:52;1.00;;;0.52;;
26756;SDS011;23848;49.798;10.228;2023-01-15T00:07:20;0.73;;;0.40;;
26756;SDS011;23848;49.798;10.228;2023-01-15T00:09:48;1.55;;;0.43;;
26756;SDS011;23848;49.798;10.228;2023-01-15T00:12:17;0.70;;;0.30;;
26756;SDS011;23848;49.798;10.228;2023-01-15T00:14:45;0.85;;;0.35;;
26756;SDS011;23848;49.798;10.228;2023-01-15T00:17:14;1.08;;;0.35;;
26756;SDS011;23848;49.798;10.228;2023-01-15T00:19:42;1.10;;;0.50;;
26756;SDS011;23848;49.798;10.228;2023-01-15T00:22:12;1.30;;;0.50;;
26756;SDS011;23848;49.798;10.228;2023-01-15T00:24:41;0.90;;;0.40;;
26756;SDS011;23848;49.798;10.228;2023-01-15T00:27:27;0.73;;;0.30;;
26756;SDS011;23848;49.798;10.228;2023-01-15T00:30:10;0.55;;;0.30;;
26756;SDS011;23848;49.798;10.228;2023-01-15T00:32:39;0.90;;;0.32;;
26756;SDS011;23848;49.798;10.228;2023-01-15T00:35:09;1.40;;;0.40;;
26756;SDS011;23848;49.798;10.228;2023-01-15T00:37:40;1.27;;;0.40;;
26756;SDS011;23848;49.798;10.228;2023-01-15T00:40:08;0.88;;;0.40;;
26756;SDS011;23848;49.798;10.228;2023-01-15T00:42:37;0.95;;;0.47;;
26756;SDS011;23848;49.798;10.228;2023-01-15T00:45:06;3.33;;;0.85;;
26756;SDS011;23848;49.798;10.228;2023-01-15T00:47:36;1.20;;;0.30;;
26756;SDS011;23848;49.798;10.228;2023-01-15T00:50:05;0.95;;;0.32;;
26756;SDS011;23848;49.798;10.228;2023-01-15T00:52:34;0.32;;;0.30;;
26756;SDS011;23848;49.798;10.228;2023-01-15T00:55:05;0.80;;;0.40;;
26756;SDS011;23848;49.798;10.228;2023-01-15T00:57:36;2.03;;;0.60;;
26756;SDS011;23848;49.798;10.228;2023-01-15T01:00:05;0.80;;;0.40;;
26756;SDS011;23848;49.798;10.228;2023-01-15T01:02:33;0.98;;;0.52;;
26756;SDS011;23848;49.798;10.228;2023-01-15T01:05:02;0.88;;;0.30;;
26756;SDS011;23848;49.798;10.228;2023-01-15T01:07:33;0.77;;;0.40;;
26756;SDS011;23848;49.798;10.228;2023-01-15T01:10:01;0.43;;;0.30;;
26756;SDS011;23848;49.798;10.228;2023-01-15T01:12:31;0.43;;;0.30;;
26756;SDS011;23848;49.798;10.228;2023-01-15T01:14:59;0.93;;;0.40;;
26756;SDS011;23848;49.798;10.228;2023-01-15T01:17:28;0.82;;;0.30;;
26756;SDS011;23848;49.798;10.228;2023-01-15T01:19:56;0.55;;;0.30;;
26756;SDS011;23848;49.798;10.228;2023-01-15T01:22:25;0.47;;;0.30;;
26756;SDS011;23848;49.798;10.228;2023-01-15T01:24:53;0.30;;;0.30;;
26756;SDS011;23848;49.798;10.228;2023-01-15T01:27:21;0.77;;;0.40;;
26756;SDS011;23848;49.798;10.228;2023-01-15T01:29:54;0.35;;;0.32;;
26756;SDS011;23848;49.798;10.228;2023-01-15T01:32:22;1.20;;;0.47;;
26756;SDS011;23848;49.798;10.228;2023-01-15T01:34:51;1.35;;;0.28;;
26756;SDS011;23848;49.798;10.228;2023-01-15T01:37:19;1.00;;;0.40;;
26756;SDS011;23848;49.798;10.228;2023-01-15T01:39:48;0.80;;;0.40;;
26756;SDS011;23848;49.798;10.228;2023-01-15T01:42:16;0.25;;;0.20;;
26756;SDS011;23848;49.798;10.228;2023-01-15T01:45:10;0.20;;;0.20;;
26756;SDS011;23848;49.798;10.228;2023-01-15T01:47:41;0.75;;;0.40;;
26756;SDS011;23848;49.798;10.228;2023-01-15T01:50:11;0.40;;;0.30;;
26756;SDS011;23848;49.798;10.228;2023-01-15T01:52:41;0.40;;;0.22;;
26756;SDS011;23848;49.798;10.228;2023-01-15T01:55:11;0.57;;;0.30;;
26756;SDS011;23848;49.798;10.228;2023-01-15T01:57:41;0.85;;;0.40;;
26756;SDS011;23848;49.798;10.228;2023-01-15T02:00:17;0.98;;;0.40;;
26756;SDS011;23848;49.798;10.228;2023-01-15T02:02:46;0.75;;;0.38;;
26756;SDS011;23848;49.798;10.228;2023-01-15T02:05:17;1.27;;;0.40;;
26756;SDS011;23848;49.798;10.228;2023-01-15T02:07:48;0.85;;;0.40;;
26756;SDS011;23848;49.798;10.228;2023-01-15T02:10:17;1.20;;;0.30;;
26756;SDS011;23848;49.798;10.228;2023-01-15T02:12:48;1.10;;;0.40;;
26756;SDS011;23848;49.798;10.228;2023-01-15T02:18:22;0.52;;;0.32;;
26756;SDS011;23848;49.798;10.228;2023-01-15T02:20:52;0.40;;;0.25;;
26756;SDS011;23848;49.798;10.228;2023-01-15T02:23:24;1.00;;;0.50;;
26756;SDS011;23848;49.798;10.228;2023-01-15T02:26:00;0.77;;;0.50;;
26756;SDS011;23848;49.798;10.228;2023-01-15T02:28:31;1.10;;;0.38;;
26756;SDS011;23848;49.798;10.228;2023-01-15T02:31:01;0.30;;;0.30;;
26756;SDS011;23848;49.798;10.228;2023-01-15T02:33:32;0.60;;;0.30;;
26756;SDS011;23848;49.798;10.228;2023-01-15T02:36:02;0.80;;;0.43;;
26756;SDS011;23848;49.798;10.228;2023-01-15T02:38:33;1.00;;;0.30;;
26756;SDS011;23848;49.798;10.228;2023-01-15T02:41:03;0.70;;;0.40;;
26756;SDS011;23848;49.798;10.228;2023-01-15T02:43:34;1.33;;;0.65;;
26756;SDS011;23848;49.798;10.228;2023-01-15T02:46:03;1.48;;;0.77;;
26756;SDS011;23848;49.798;10.228;2023-01-15T02:48:34;0.88;;;0.40;;
26756;SDS011;23848;49.798;10.228;2023-01-15T02:51:05;1.65;;;0.60;;
26756;SDS011;23848;49.798;10.228;2023-01-15T02:53:36;1.38;;;0.52;;
26756;SDS011;23848;49.798;10.228;2023-01-15T02:56:06;0.88;;;0.50;;
26756;SDS011;23848;49.798;10.228;2023-01-15T02:58:37;1.20;;;0.55;;
26756;SDS011;23848;49.798;10.228;2023-01-15T03:01:08;0.93;;;0.40;;
26756;SDS011;23848;49.798;10.228;2023-01-15T03:03:40;0.77;;;0.40;;
26756;SDS011;23848;49.798;10.228;2023-01-15T03:06:10;1.23;;;0.50;;
26756;SDS011;23848;49.798;10.228;2023-01-15T03:08:41;1.05;;;0.50;;
26756;SDS011;23848;49.798;10.228;2023-01-15T03:11:10;0.68;;;0.30;;
26756;SDS011;23848;49.798;10.228;2023-01-15T03:13:42;1.13;;;0.43;;
26756;SDS011;23848;49.798;10.228;2023-01-15T03:16:14;1.92;;;0.60;;
26756;SDS011;23848;49.798;10.228;2023-01-15T03:19:05;1.60;;;0.45;;
26756;SDS011;23848;49.798;10.228;2023-01-15T03:21:37;0.90;;;0.30;;
26756;SDS011;23848;49.798;10.228;2023-01-15T03:24:07;1.95;;;0.50;;
26756;SDS011;23848;49.798;10.228;2023-01-15T03:26:37;1.17;;;0.60;;
26756;SDS011;23848;49.798;10.228;2023-01-15T03:29:07;1.35;;;0.70;;
26756;SDS011;23848;49.798;10.228;2023-01-15T03:31:36;1.92;;;0.90;;
26756;SDS011;23848;49.798;10.228;2023-01-15T03:34:04;1.17;;;0.52;;
26756;SDS011;23848;49.798;10.228;2023-01-15T03:36:33;0.50;;;0.30;;
26756;SDS011;23848;49.798;10.228;2023-01-15T03:39:02;2.25;;;0.70;;
26756;SDS011;23848;49.798;10.228;2023-01-15T03:41:34;1.48;;;0.60;;
26756;SDS011;23848;49.798;10.228;2023-01-15T03:44:07;1.55;;;0.70;;
26756;SDS011;23848;49.798;10.228;2023-01-15T03:46:46;0.93;;;0.50;;
26756;SDS011;23848;49.798;10.228;2023-01-15T03:49:20;1.10;;;0.50;;
26756;SDS011;23848;49.798;10.228;2023-01-15T03:51:52;1.67;;;0.45;;
26756;SDS011;23848;49.798;10.228;2023-01-15T03:54:26;0.85;;;0.50;;
26756;SDS011;23848;49.798;10.228;2023-01-15T03:59:30;0.55;;;0.35;;
26756;SDS011;23848;49.798;10.228;2023-01-15T04:01:59;1.42;;;0.43;;
26756;SDS011;23848;49.798;10.228;2023-01-15T04:04:29;1.10;;;0.50;;
26756;SDS011;23848;49.798;10.228;2023-01-15T04:06:58;0.80;;;0.40;;
26756;SDS011;23848;49.798;10.228;2023-01-15T04:09:26;0.68;;;0.40;;
26756;SDS011;23848;49.798;10.228;2023-01-15T04:11:57;1.40;;;0.70;;
26756;SDS011;23848;49.798;10.228;2023-01-15T04:14:25;2.45;;;0.80;;
26756;SDS011;23848;49.798;10.228;2023-01-15T04:16:55;3.03;;;0.50;;
26756;SDS011;23848;49.798;10.228;2023-01-15T04:19:23;2.28;;;0.60;;
26756;SDS011;23848;49.798;10.228;2023-01-15T04:21:51;2.10;;;0.73;;
26756;SDS011;23848;49.798;10.228;2023-01-15T04:24:20;1.92;;;1.00;;
26756;SDS011;23848;49.798;10.228;2023-01-15T04:26:51;1.90;;;0.70;;
26756;SDS011;23848;49.798;10.228;2023-01-15T04:29:22;1.92;;;0.85;;
26756;SDS011;23848;49.798;10.228;2023-01-15T04:31:55;1.92;;;0.80;;
26756;SDS011;23848;49.798;10.228;2023-01-15T04:34:27;1.95;;;0.65;;
26756;SDS011;23848;49.798;10.228;2023-01-15T04:36:57;0.65;;;0.50;;
26756;SDS011;23848;49.798;10.228;2023-01-15T04:39:29;0.52;;;0.30;;
26756;SDS011;23848;49.798;10.228;2023-01-15T04:44:48;1.23;;;0.40;;
26756;SDS011;23848;49.798;10.228;2023-01-15T04:47:20;0.68;;;0.30;;
26756;SDS011;23848;49.798;10.228;2023-01-15T04:49:49;1.70;;;0.30;;
26756;SDS011;23848;49.798;10.228;2023-01-15T04:52:17;2.45;;;0.28;;
26756;SDS011;23848;49.798;10.228;2023-01-15T04:54:46;0.50;;;0.20;;
26756;SDS011;23848;49.798;10.228;2023-01-15T04:57:14;1.73;;;0.20;;
26756;SDS011;23848;49.798;10.228;2023-01-15T04:59:42;0.17;;;0.17;;
26756;SDS011;23848;49.798;10.228;2023-01-15T05:02:11;0.20;;;0.20;;
26756;SDS011;23848;49.798;10.228;2023-01-15T05:04:42;0.40;;;0.20;;
26756;SDS011;23848;49.798;10.228;2023-01-15T05:07:12;0.13;;;0.13;;
26756;SDS011;23848;49.798;10.228;2023-01-15T05:09:41;0.20;;;0.20;;
26756;SDS011;23848;49.798;10.228;2023-01-15T05:12:09;0.47;;;0.20;;
26756;SDS011;23848;49.798;10.228;2023-01-15T05:14:41;0.20;;;0.20;;
26756;SDS011;23848;49.798;10.228;2023-01-15T05:17:11;0.35;;;0.20;;
26756;SDS011;23848;49.798;10.228;2023-01-15T05:19:44;0.30;;;0.20;;
26756;SDS011;23848;49.798;10.228;2023-01-15T05:22:12;0.32;;;0.15;;
26756;SDS011;23848;49.798;10.228;2023-01-15T05:24:40;0.17;;;0.17;;
26756;SDS011;23848;49.798;10.228;2023-01-15T05:27:10;0.20;;;0.20;;
26756;SDS011;23848;49.798;10.228;2023-01-15T05:29:39;0.17;;;0.17;;
26756;SDS011;23848;49.798;10.228;2023-01-15T05:32:08;0.20;;;0.20;;
26756;SDS011;23848;49.798;10.228;2023-01-15T05:34:39;0.17;;;0.17;;
26756;SDS011;23848;49.798;10.228;2023-01-15T05:37:13;0.15;;;0.15;;
26756;SDS011;23848;49.798;10.228;2023-01-15T05:39:41;0.20;;;0.10;;
26756;SDS011;23848;49.798;10.228;2023-01-15T05:42:10;0.20;;;0.20;;
26756;SDS011;23848;49.798;10.228;2023-01-15T05:44:38;0.22;;;0.20;;
26756;SDS011;23848;49.798;10.228;2023-01-15T05:47:08;0.10;;;0.10;;
26756;SDS011;23848;49.798;10.228;2023-01-15T05:49:37;0.30;;;0.22;;
26756;SDS011;23848;49.798;10.228;2023-01-15T05:52:05;1.23;;;0.20;;
26756;SDS011;23848;49.798;10.228;2023-01-15T05:54:35;0.70;;;0.40;;
26756;SDS011;23848;49.798;10.228;2023-01-15T05:57:04;0.65;;;0.35;;
26756;SDS011;23848;49.798;10.228;2023-01-15T05:59:32;0.30;;;0.20;;
26756;SDS011;23848;49.798;10.228;2023-01-15T06:02:01;0.10;;;0.10;;
26756;SDS011;23848;49.798;10.228;2023-01-15T06:04:30;0.20;;;0.20;;
26756;SDS011;23848;49.798;10.228;2023-01-15T06:06:58;0.60;;;0.20;;
26756;SDS011;23848;49.798;10.228;2023-01-15T06:09:26;0.20;;;0.20;;
26756;SDS011;23848;49.798;10.228;2023-01-15T06:11:56;0.70;;;0.30;;
26756;SDS011;23848;49.798;10.228;2023-01-15T06:14:25;0.75;;;0.20;;
26756;SDS011;23848;49.798;10.228;2023-01-15T06:16:53;0.57;;;0.20;;
26756;SDS011;23848;49.798;10.228;2023-01-15T06:19:21;0.20;;;0.15;;
26756;SDS011;23848;49.798;10.228;2023-01-15T06:21:51;0.77;;;0.30;;
26756;SDS011;23848;49.798;10.228;2023-01-15T06:24:19;0.50;;;0.30;;
26756;SDS011;23848;49.798;10.228;2023-01-15T06:26:48;0.20;;;0.20;;
26756;SDS011;23848;49.798;10.228;2023-01-15T06:29:18;0.77;;;0.30;;
26756;SDS011;23848;49.798;10.228;2023-01-15T06:31:46;0.20;;;0.20;;
26756;SDS011;23848;49.798;10.228;2023-01-15T06:34:17;0.20;;;0.20;;
26756;SDS011;23848;49.798;10.228;2023-01-15T06:36:45;1.00;;;0.50;;
26756;SDS011;23848;49.798;10.228;2023-01-15T06:39:14;0.30;;;0.20;;
26756;SDS011;23848;49.798;10.228;2023-01-15T06:41:42;0.98;;;0.40;;
26756;SDS011;23848;49.798;10.228;2023-01-15T06:44:30;0.93;;;0.40;;
26756;SDS011;23848;49.798;10.228;2023-01-15T06:47:17;0.70;;;0.40;;
26756;SDS011;23848;49.798;10.228;2023-01-15T06:49:51;1.75;;;0.40;;
26756;SDS011;23848;49.798;10.228;2023-01-15T06:52:20;2.70;;;1.20;;
26756;SDS011;23848;49.798;10.228;2023-01-15T06:54:48;10.40;;;4.93;;
26756;SDS011;23848;49.798;10.228;2023-01-15T06:57:17;2.08;;;0.90;;
26756;SDS011;23848;49.798;10.228;2023-01-15T06:59:47;8.80;;;4.95;;
26756;SDS011;23848;49.798;10.228;2023-01-15T07:02:15;2.15;;;1.00;;
26756;SDS011;23848;49.798;10.228;2023-01-15T07:04:44;3.10;;;1.33;;
26756;SDS011;23848;49.798;10.228;2023-01-15T07:07:13;8.55;;;6.82;;
26756;SDS011;23848;49.798;10.228;2023-01-15T07:09:42;1.92;;;0.90;;
26756;SDS011;23848;49.798;10.228;2023-01-15T07:12:11;2.28;;;0.70;;
26756;SDS011;23848;49.798;10.228;2023-01-15T07:14:40;1.38;;;0.70;;
26756;SDS011;23848;49.798;10.228;2023-01-15T07:17:10;0.95;;;0.40;;
26756;SDS011;23848;49.798;10.228;2023-01-15T07:19:39;1.38;;;0.50;;
26756;SDS011;23848;49.798;10.228;2023-01-15T07:22:08;1.00;;;0.40;;
26756;SDS011;23848;49.798;10.228;2023-01-15T07:24:37;3.40;;;1.17;;
26756;SDS011;23848;49.798;10.228;2023-01-15T07:27:06;2.35;;;0.93;;
26756;SDS011;23848;49.798;10.228;2023-01-15T07:29:34;2.45;;;0.88;;
26756;SDS011;23848;49.798;10.228;2023-01-15T07:32:03;2.30;;;0.98;;
26756;SDS011;23848;49.798;10.228;2023-01-15T07:34:33;1.13;;;0.50;;
26756;SDS011;23848;49.798;10.228;2023-01-15T07:37:02;2.63;;;0.80;;
26756;SDS011;23848;49.798;10.228;2023-01-15T07:39:31;3.72;;;1.05;;
26756;SDS011;23848;49.798;10.228;2023-01-15T07:41:59;1.25;;;0.60;;
26756;SDS011;23848;49.798;10.228;2023-01-15T07:44:46;1.63;;;0.82;;
26756;SDS011;23848;49.798;10.228;2023-01-15T07:47:31;2.15;;;0.77;;
26756;SDS011;23848;49.798;10.228;2023-01-15T07:50:20;6.70;;;2.42;;
26756;SDS011;23848;49.798;10.228;2023-01-15T07:52:49;2.92;;;1.58;;
26756;SDS011;23848;49.798;10.228;2023-01-15T07:55:20;7.97;;;3.88;;
26756;SDS011;23848;49.798;10.228;2023-01-15T07:57:49;13.68;;;8.77;;
26756;SDS011;23848;49.798;10.228;2023-01-15T08:00:20;10.40;;;5.95;;
26756;SDS011;23848;49.798;10.228;2023-01-15T08:02:48;5.38;;;3.70;;
26756;SDS011;23848;49.798;10.228;2023-01-15T08:05:18;6.53;;;4.20;;
26756;SDS011;23848;49.798;10.228;2023-01-15T08:07:47;2.80;;;1.88;;
26756;SDS011;23848;49.798;10.228;2023-01-15T08:10:16;2.72;;;1.15;;
26756;SDS011;23848;49.798;10.228;2023-01-15T08:12:48;2.92;;;1.90;;
26756;SDS011;23848;49.798;10.228;2023-01-15T08:15:37;2.45;;;1.05;;
26756;SDS011;23848;49.798;10.228;2023-01-15T08:18:05;2.72;;;1.00;;
26756;SDS011;23848;49.798;10.228;2023-01-15T08:20:35;1.70;;;0.90;;
26756;SDS011;23848;49.798;10.228;2023-01-15T08:23:03;2.05;;;0.88;;
26756;SDS011;23848;49.798;10.228;2023-01-15T08:25:32;4.88;;;2.70;;
26756;SDS011;23848;49.798;10.228;2023-01-15T08:28:00;1.15;;;0.60;;
26756;SDS011;23848;49.798;10.228;2023-01-15T08:30:29;1.00;;;0.60;;
26756;SDS011;23848;49.798;10.228;2023-01-15T08:33:02;2.57;;;0.60;;
26756;SDS011;23848;49.798;10.228;2023-01-15T08:35:31;0.43;;;0.30;;
26756;SDS011;23848;49.798;10.228;2023-01-15T08:38:04;0.82;;;0.50;;
26756;SDS011;23848;49.798;10.228;2023-01-15T08:40:32;0.75;;;0.40;;
26756;SDS011;23848;49.798;10.228;2023-01-15T08:43:01;1.80;;;0.50;;
26756;SDS011;23848;49.798;10.228;2023-01-15T08:45:29;1.88;;;1.10;;
26756;SDS011;23848;49.798;10.228;2023-01-15T08:47:58;1.10;;;0.60;;
26756;SDS011;23848;49.798;10.228;2023-01-15T08:50:30;1.88;;;1.05;;
26756;SDS011;23848;49.798;10.228;2023-01-15T08:52:58;2.28;;;0.80;;
26756;SDS011;23848;49.798;10.228;2023-01-15T08:55:29;2.17;;;1.13;;
26756;SDS011;23848;49.798;10.228;2023-01-15T08:57:58;1.63;;;0.80;;
26756;SDS011;23848;49.798;10.228;2023-01-15T09:00:27;1.70;;;1.00;;
26756;SDS011;23848;49.798;10.228;2023-01-15T09:02:56;1.58;;;1.00;;
26756;SDS011;23848;49.798;10.228;2023-01-15T09:05:24;1.70;;;0.93;;
26756;SDS011;23848;49.798;10.228;2023-01-15T09:07:54;3.55;;;1.10;;
26756;SDS011;23848;49.798;10.228;2023-01-15T09:10:23;1.75;;;0.85;;
26756;SDS011;23848;49.798;10.228;2023-01-15T09:12:53;2.00;;;0.98;;
26756;SDS011;23848;49.798;10.228;2023-01-15T09:15:21;1.85;;;1.02;;
26756;SDS011;23848;49.798;10.228;2023-01-15T09:17:50;2.20;;;1.10;;
26756;SDS011;23848;49.798;10.228;2023-01-15T09:20:21;1.77;;;1.08;;
26756;SDS011;23848;49.798;10.228;2023-01-15T09:22:50;3.60;;;1.48;;
26756;SDS011;23848;49.798;10.228;2023-01-15T09:25:18;2.92;;;1.67;;
26756;SDS011;23848;49.798;10.228;2023-01-15T09:27:49;2.40;;;1.30;;
26756;SDS011;23848;49.798;10.228;2023-01-15T09:30:19;2.10;;;1.08;;
26756;SDS011;23848;49.798;10.228;2023-01-15T09:32:48;4.85;;;2.67;;
26756;SDS011;23848;49.798;10.228;2023-01-15T09:35:16;6.70;;;4.15;;
26756;SDS011;23848;49.798;10.228;2023-01-15T09:37:48;4.50;;;1.95;;
26756;SDS011;23848;49.798;10.228;2023-01-15T09:40:24;2.90;;;0.93;;
26756;SDS011;23848;49.798;10.228;2023-01-15T09:42:58;3.45;;;2.45;;
26756;SDS011;23848;49.798;10.228;2023-01-15T09:45:33;4.35;;;2.40;;
26756;SDS011;23848;49.798;10.228;2023-01-15T09:48:12;3.42;;;1.83;;
26756;SDS011;23848;49.798;10.228;2023-01-15T09:50:54;2.72;;;1.80;;
26756;SDS011;23848;49.798;10.228;2023-01-15T09:53:33;2.50;;;1.70;;
26756;SDS011;23848;49.798;10.228;2023-01-15T09:56:10;3.25;;;2.35;;
26756;SDS011;23848;49.798;10.228;2023-01-15T09:58:39;3.22;;;1.95;;
26756;SDS011;23848;49.798;10.228;2023-01-15T10:01:10;2.17;;;1.20;;
26756;SDS011;23848;49.798;10.228;2023-01-15T10:03:44;6.00;;;3.25;;
26756;SDS011;23848;49.798;10.228;2023-01-15T10:06:16;3.35;;;2.13;;
26756;SDS011;23848;49.798;10.228;2023-01-15T10:08:45;4.00;;;2.67;;
26756;SDS011;23848;49.798;10.228;2023-01-15T10:11:27;5.32;;;2.50;;
26756;SDS011;23848;49.798;10.228;2023-01-15T10:14:21;4.65;;;2.10;;
26756;SDS011;23848;49.798;10.228;2023-01-15T10:16:56;5.20;;;2.20;;
26756;SDS011;23848;49.798;10.228;2023-01-15T10:19:25;4.10;;;2.28;;
26756;SDS011;23848;49.798;10.228;2023-01-15T10:24:38;3.30;;;1.55;;
26756;SDS011;23848;49.798;10.228;2023-01-15T10:27:07;1.73;;;1.00;;
26756;SDS011;23848;49.798;10.228;2023-01-15T10:29:47;3.28;;;1.52;;
26756;SDS011;23848;49.798;10.228;2023-01-15T10:32:22;3.17;;;1.10;;
26756;SDS011;23848;49.798;10.228;2023-01-15T10:37:35;3.75;;;1.70;;
26756;SDS011;23848;49.798;10.228;2023-01-15T10:40:20;4.40;;;2.00;;
26756;SDS011;23848;49.798;10.228;2023-01-15T10:42:53;3.25;;;1.77;;
26756;SDS011;23848;49.798;10.228;2023-01-15T10:45:26;2.33;;;1.50;;
26756;SDS011;23848;49.798;10.228;2023-01-15T10:47:56;36.67;;;18.65;;
26756;SDS011;23848;49.798;10.228;2023-01-15T10:50:27;37.13;;;22.25;;
26756;SDS011;23848;49.798;10.228;2023-01-15T10:53:08;31.60;;;19.90;;
26756;SDS011;23848;49.798;10.228;2023-01-15T10:55:51;21.95;;;13.70;;
26756;SDS011;23848;49.798;10.228;2023-01-15T10:58:27;4.78;;;2.75;;
26756;SDS011;23848;49.798;10.228;2023-01-15T11:00:57;6.95;;;4.22;;
26756;SDS011;23848;49.798;10.228;2023-01-15T11:03:30;3.45;;;2.08;;
26756;SDS011;23848;49.798;10.228;2023-01-15T11:06:00;2.42;;;1.38;;
26756;SDS011;23848;49.798;10.228;2023-01-15T11:08:28;1.85;;;1.02;;
26756;SDS011;23848;49.798;10.228;2023-01-15T11:11:22;6.78;;;3.75;;
26756;SDS011;23848;49.798;10.228;2023-01-15T11:14:07;8.20;;;4.78;;
26756;SDS011;23848;49.798;10.228;2023-01-15T11:16:53;4.00;;;2.35;;
26756;SDS011;23848;49.798;10.228;2023-01-15T11:19:43;3.50;;;1.88;;
26756;SDS011;23848;49.798;10.228;2023-01-15T11:22:12;2.67;;;1.65;;
26756;SDS011;23848;49.798;10.228;2023-01-15T11:24:47;3.72;;;1.90;;
26756;SDS011;23848;49.798;10.228;2023-01-15T11:27:18;4.10;;;2.03;;
26756;SDS011;23848;49.798;10.228;2023-01-15T11:29:50;2.75;;;1.60;;
26756;SDS011;23848;49.798;10.228;2023-01-15T11:32:24;2.47;;;1.00;;
26756;SDS011;23848;49.798;10.228;2023-01-15T11:35:01;2.05;;;1.00;;
26756;SDS011;23848;49.798;10.228;2023-01-15T11:37:35;1.88;;;0.98;;
26756;SDS011;23848;49.798;10.228;2023-01-15T11:40:04;2.15;;;0.98;;
26756;SDS011;23848;49.798;10.228;2023-01-15T11:42:35;1.42;;;0.82;;
26756;SDS011;23848;49.798;10.228;2023-01-15T11:45:22;1.23;;;0.70;;
26756;SDS011;23848;49.798;10.228;2023-01-15T11:48:12;2.22;;;1.00;;
26756;SDS011;23848;49.798;10.228;2023-01-15T11:51:15;1.85;;;1.02;;
26756;SDS011;23848;49.798;10.228;2023-01-15T11:53:45;2.67;;;1.73;;
26756;SDS011;23848;49.798;10.228;2023-01-15T11:56:15;3.95;;;2.97;;
26756;SDS011;23848;49.798;10.228;2023-01-15T11:58:46;1.50;;;0.70;;
26756;SDS011;23848;49.798;10.228;2023-01-15T12:01:20;2.10;;;1.23;;
26756;SDS011;23848;49.798;10.228;2023-01-15T12:06:20;2.92;;;1.38;;
26756;SDS011;23848;49.798;10.228;2023-01-15T12:08:49;2.40;;;1.30;;
26756;SDS011;23848;49.798;10.228;2023-01-15T12:11:22;2.40;;;1.08;;
26756;SDS011;23848;49.798;10.228;2023-01-15T12:13:57;2.17;;;0.98;;
26756;SDS011;23848;49.798;10.228;2023-01-15T12:16:31;1.17;;;0.65;;
26756;SDS011;23848;49.798;10.228;2023-01-15T12:19:04;1.27;;;0.60;;
26756;SDS011;23848;49.798;10.228;2023-01-15T12:27:20;4.50;;;1.90;;
26756;SDS011;23848;49.798;10.228;2023-01-15T12:29:56;2.22;;;1.10;;
26756;SDS011;23848;49.798;10.228;2023-01-15T12:32:27;2.15;;;0.90;;
26756;SDS011;23848;49.798;10.228;2023-01-15T12:34:57;2.28;;;0.68;;
26756;SDS011;23848;49.798;10.228;2023-01-15T12:37:28;1.90;;;0.88;;
26756;SDS011;23848;49.798;10.228;2023-01-15T12:39:58;2.00;;;0.90;;
26756;SDS011;23848;49.798;10.228;2023-01-15T12:42:29;2.30;;;0.95;;
26756;SDS011;23848;49.798;10.228;2023-01-15T12:45:28;1.95;;;0.88;;
26756;SDS011;23848;49.798;10.228;2023-01-15T12:48:01;1.55;;;0.65;;
26756;SDS011;23848;49.798;10.228;2023-01-15T12:50:33;2.25;;;0.60;;
26756;SDS011;23848;49.798;10.228;2023-01-15T12:53:05;0.90;;;0.43;;
26756;SDS011;23848;49.798;10.228;2023-01-15T12:55:37;0.98;;;0.50;;
26756;SDS011;23848;49.798;10.228;2023-01-15T12:58:12;1.20;;;0.60;;
26756;SDS011;23848;49.798;10.228;2023-01-15T13:00:44;1.30;;;0.70;;
26756;SDS011;23848;49.798;10.228;2023-01-15T13:03:15;1.83;;;0.80;;
26756;SDS011;23848;49.798;10.228;2023-01-15T13:05:47;2.15;;;0.60;;
26756;SDS011;23848;49.798;10.228;2023-01-15T13:08:18;1.55;;;0.60;;
26756;SDS011;23848;49.798;10.228;2023-01-15T13:10:49;2.33;;;0.82;;
26756;SDS011;23848;49.798;10.228;2023-01-15T13:13:20;1.20;;;0.55;;
26756;SDS011;23848;49.798;10.228;2023-01-15T13:15:53;1.20;;;0.55;;
26756;SDS011;23848;49.798;10.228;2023-01-15T13:18:27;3.80;;;0.60;;
26756;SDS011;23848;49.798;10.228;2023-01-15T13:21:01;1.27;;;0.55;;
26756;SDS011;23848;49.798;10.228;2023-01-15T13:23:39;2.28;;;0.73;;
26756;SDS011;23848;49.798;10.228;2023-01-15T13:26:28;1.05;;;0.50;;
26756;SDS011;23848;49.798;10.228;2023-01-15T13:29:11;1.00;;;0.57;;
26756;SDS011;23848;49.798;10.228;2023-01-15T13:31:51;2.03;;;0.70;;
26756;SDS011;23848;49.798;10.228;2023-01-15T13:34:26;1.08;;;0.50;;
26756;SDS011;23848;49.798;10.228;2023-01-15T13:37:11;1.27;;;0.60;;
26756;SDS011;23848;49.798;10.228;2023-01-15T13:39:42;2.42;;;0.80;;
26756;SDS011;23848;49.798;10.228;2023-01-15T13:42:15;2.40;;;0.80;;
26756;SDS011;23848;49.798;10.228;2023-01-15T13:45:22;1.50;;;0.52;;
26756;SDS011;23848;49.798;10.228;2023-01-15T13:47:56;1.75;;;0.90;;
26756;SDS011;23848;49.798;10.228;2023-01-15T13:50:31;2.08;;;1.02;;
26756;SDS011;23848;49.798;10.228;2023-01-15T13:53:05;2.67;;;1.30;;
26756;SDS011;23848;49.798;10.228;2023-01-15T13:55:35;2.53;;;1.27;;
26756;SDS011;23848;49.798;10.228;2023-01-15T13:58:16;1.92;;;1.05;;
26756;SDS011;23848;49.798;10.228;2023-01-15T14:01:04;1.83;;;0.85;;
26756;SDS011;23848;49.798;10.228;2023-01-15T14:03:51;2.42;;;0.98;;
26756;SDS011;23848;49.798;10.228;2023-01-15T14:06:33;1.48;;;0.60;;
26756;SDS011;23848;49.798;10.228;2023-01-15T14:09:02;1.83;;;0.70;;
26756;SDS011;23848;49.798;10.228;2023-01-15T14:11:34;3.10;;;1.00;;
26756;SDS011;23848;49.798;10.228;2023-01-15T14:14:16;1.60;;;0.90;;
26756;SDS011;23848;49.798;10.228;2023-01-15T14:16:54;1.65;;;0.65;;
26756;SDS011;23848;49.798;10.228;2023-01-15T14:22:32;2.20;;;0.63;;
26756;SDS011;23848;49.798;10.228;2023-01-15T14:25:15;1.08;;;0.47;;
26756;SDS011;23848;49.798;10.228;2023-01-15T14:27:51;0.80;;;0.47;;
26756;SDS011;23848;49.798;10.228;2023-01-15T14:33:18;1.88;;;1.00;;
26756;SDS011;23848;49.798;10.228;2023-01-15T14:35:51;4.38;;;2.60;;
26756;SDS011;23848;49.798;10.228;2023-01-15T14:38:20;3.88;;;2.33;;
26756;SDS011;23848;49.798;10.228;2023-01-15T14:40:51;3.97;;;2.15;;
26756;SDS011;23848;49.798;10.228;2023-01-15T14:43:28;4.40;;;2.50;;
26756;SDS011;23848;49.798;10.228;2023-01-15T14:46:10;2.15;;;1.10;;
26756;SDS011;23848;49.798;10.228;2023-01-15T14:48:56;5.22;;;2.55;;
26756;SDS011;23848;49.798;10.228;2023-01-15T14:51:30;3.05;;;1.75;;
26756;SDS011;23848;49.798;10.228;2023-01-15T14:54:03;3.92;;;2.22;;
26756;SDS011;23848;49.798;10.228;2023-01-15T14:56:36;1.58;;;0.95;;
26756;SDS011;23848;49.798;10.228;2023-01-15T14:59:08;2.60;;;0.93;;
26756;SDS011;23848;49.798;10.228;2023-01-15T15:01:44;2.13;;;1.13;;
26756;SDS011;23848;49.798;10.228;2023-01-15T15:04:26;2.42;;;1.38;;
26756;SDS011;23848;49.798;10.228;2023-01-15T15:06:59;2.97;;;1.17;;
26756;SDS011;23848;49.798;10.228;2023-01-15T15:09:31;2.30;;;1.20;;
26756;SDS011;23848;49.798;10.228;2023-01-15T15:12:06;1.83;;;0.90;;
26756;SDS011;23848;49.798;10.228;2023-01-15T15:18:12;5.07;;;1.80;;
26756;SDS011;23848;49.798;10.228;2023-01-15T15:20:49;4.03;;;2.38;;
26756;SDS011;23848;49.798;10.228;2023-01-15T15:23:20;3.75;;;1.60;;
26756;SDS011;23848;49.798;10.228;2023-01-15T15:25:54;3.30;;;1.70;;
26756;SDS011;23848;49.798;10.228;2023-01-15T15:28:24;5.23;;;2.00;;
26756;SDS011;23848;49.798;10.228;2023-01-15T15:30:53;4.75;;;1.65;;
26756;SDS011;23848;49.798;10.228;2023-01-15T15:33:26;3.38;;;2.45;;
26756;SDS011;23848;49.798;10.228;2023-01-15T15:35:58;4.32;;;2.67;;